CYFBCYYQ

Guest
Details From CYFB - Iqaluit
To CYYQ - CHURCHILL
Flight Number -
Tags generated
Created
Modified
Stats Distance 798 nm / 1,477 km
Max Altitude 34,000 ft / 10,363 m
Waypoints 5
Social Downloads 1
Likes 0
Share VATSIM

Download

Looking for another format? Having issues loading an existing format? Contact us
Advertisement - Login to hide

Notes

Basic altitude profile: - Ascent Rate: 2500ft/min - Ascent Speed: 250kts - Cruise Altitude: 35000ft - Cruise Speed: 420kts - Descent Rate: 1500ft/min - Descent Speed: 250kts

Route

CYFB YFB N554C YYQ CYYQ

ID Type Via Altitude Latitude Longitude Leg Dist Tot Dist Heading (true) Name
O CYFB APT - 0 ft / 0 m 63.75657˚ -68.55606˚ - 0 nm - Iqaluit
YFB VOR - 800 ft / 244 m 63.74167˚ -68.47333˚ 2 nm 2 nm 112° / 112° FROBAY VOR
BODRA FIX N554C (AWY-HI) 34,000 ft / 10,363 m 62.28278˚ -80.00000˚ 325 nm 328 nm 260° / 249° -
YYQ VOR N554C (AWY-HI) 28,000 ft / 8,534 m 58.74175˚ -94.13531˚ 467 nm 795 nm 249° / 237° CHURCHILL VOR-DME
O CYYQ APT - 0 ft / 0 m 58.74397˚ -94.06386˚ 2 nm 797 nm 87° / 87° CHURCHILL

Altitude Profile

Advertisement - Login to hide

Weather


0- 5 10 15 20 25 30 35+ Temperature / ° C

Clouds and Precipitation
Forecast for 2018-05-24 00:00 UTC. Updated 4 hours ago

Ground ~20,000 ft ~40,000 ft Winds

CYFB

Details ICAO CYFB (YFB)
Name Iqaluit
Region Canada
Timezone America/Iqaluit (UTC-4.0)
Stats Elevation 110 ft / 34 m (AMSL)
Location 63.756565° -68.556058°
Runways 1
Magnetic Variation 27.373° W

METAR

CYFB 240200Z 33011KT 30SM OVC043 M04/M07 A2992 RMK SC8 INTMT -SN SLP136

Decode

TAF

TAF CYFB 232338Z 2400/2424 33018KT P6SM -SN FEW015 BKN040 TEMPO 2400/2412 5SM -SN BKN015 OVC030 BECMG 2404/2406 33006KT FM241200 33006KT P6SM -SN BKN020 RMK NXT FCST BY 240600Z

Decode

Departure Runways

ID Width Length Bearing (true) Bearing (mag) Surface Threshold Offset Overrun Length
17 200 ft / 61 m 8,605 ft / 2,623 m 135.58° 162.95° Asphalt 0 ft / 0 m 210 ft / 64 m
35 200 ft / 61 m 8,605 ft / 2,623 m 315.62° 342.99° Asphalt 0 ft / 0 m 243 ft / 74 m

CYYQ

Details ICAO CYYQ (YYQ)
Name CHURCHILL
Region Canada
Timezone America/Winnipeg (UTC-5.0)
Stats Elevation 94 ft / 29 m (AMSL)
Location 58.743971° -94.063864°
Runways 2
Magnetic Variation 2.066° W

METAR

CYYQ 240200Z 12004KT 15SM BKN110 BKN250 08/04 A2973 RMK AC6CI1 SLP071

Decode

TAF

TAF CYYQ 232358Z 2400/2424 36010KT P6SM FEW150 FEW250 BECMG 2401/2403 36006KT FM241100 02008KT P6SM FEW012 SCT080 BECMG 2416/2418 02012KT FM242100 02015KT P6SM SCT006 BKN012 RMK NXT FCST BY 240600Z

Decode

Destination Runways

ID Width Length Bearing (true) Bearing (mag) Surface Threshold Offset Overrun Length
07 100 ft / 30 m 3,988 ft / 1,215 m 70.97° 73.04° Gravel 0 ft / 0 m 0 ft / 0 m
15 160 ft / 49 m 9,178 ft / 2,797 m 152.64° 154.71° Asphalt 0 ft / 0 m 0 ft / 0 m
25 100 ft / 30 m 3,988 ft / 1,215 m 250.99° 253.06° Gravel 0 ft / 0 m 0 ft / 0 m
33 160 ft / 49 m 9,178 ft / 2,797 m 332.66° 334.73° Asphalt 0 ft / 0 m 0 ft / 0 m

Popular Alternatives